sensor_id;sensor_type;location;lat;lon;timestamp;temperature;humidity
16505;HTU21D;8365;51.030;4.696;2023-02-26T00:00:36;1.93;103.57
16505;HTU21D;8365;51.030;4.696;2023-02-26T00:03:07;1.83;104.79
16505;HTU21D;8365;51.030;4.696;2023-02-26T00:05:37;1.84;104.63
16505;HTU21D;8365;51.030;4.696;2023-02-26T00:08:08;1.92;103.02
16505;HTU21D;8365;51.030;4.696;2023-02-26T00:10:41;1.75;105.80
16505;HTU21D;8365;51.030;4.696;2023-02-26T00:13:12;1.96;104.03
16505;HTU21D;8365;51.030;4.696;2023-02-26T00:15:43;1.95;104.03
16505;HTU21D;8365;51.030;4.696;2023-02-26T00:18:15;2.11;103.23
16505;HTU21D;8365;51.030;4.696;2023-02-26T00:20:45;2.05;104.47
16505;HTU21D;8365;51.030;4.696;2023-02-26T00:23:16;2.03;104.29
16505;HTU21D;8365;51.030;4.696;2023-02-26T00:25:47;2.13;104.02
16505;HTU21D;8365;51.030;4.696;2023-02-26T00:28:18;2.27;102.74
16505;HTU21D;8365;51.030;4.696;2023-02-26T00:30:51;2.15;103.54
16505;HTU21D;8365;51.030;4.696;2023-02-26T00:33:22;2.15;103.65
16505;HTU21D;8365;51.030;4.696;2023-02-26T00:36:40;2.23;103.63
16505;HTU21D;8365;51.030;4.696;2023-02-26T00:41:40;2.29;102.92
16505;HTU21D;8365;51.030;4.696;2023-02-26T00:44:11;2.35;102.72
16505;HTU21D;8365;51.030;4.696;2023-02-26T00:46:59;2.13;103.29
16505;HTU21D;8365;51.030;4.696;2023-02-26T00:49:53;2.08;104.47
16505;HTU21D;8365;51.030;4.696;2023-02-26T00:52:41;1.80;107.19
16505;HTU21D;8365;51.030;4.696;2023-02-26T00:55:13;2.06;105.82
16505;HTU21D;8365;51.030;4.696;2023-02-26T00:57:46;2.07;105.34
16505;HTU21D;8365;51.030;4.696;2023-02-26T01:00:17;2.14;104.68
16505;HTU21D;8365;51.030;4.696;2023-02-26T01:02:48;2.14;104.85
16505;HTU21D;8365;51.030;4.696;2023-02-26T01:05:20;2.09;106.11
16505;HTU21D;8365;51.030;4.696;2023-02-26T01:07:53;2.02;106.44
16505;HTU21D;8365;51.030;4.696;2023-02-26T01:10:26;2.11;106.19
16505;HTU21D;8365;51.030;4.696;2023-02-26T01:12:57;1.98;106.80
16505;HTU21D;8365;51.030;4.696;2023-02-26T01:15:28;1.97;108.47
16505;HTU21D;8365;51.030;4.696;2023-02-26T01:18:15;1.96;108.89
16505;HTU21D;8365;51.030;4.696;2023-02-26T01:21:04;2.00;108.68
16505;HTU21D;8365;51.030;4.696;2023-02-26T01:23:40;1.99;108.46
16505;HTU21D;8365;51.030;4.696;2023-02-26T01:26:26;2.02;108.90
16505;HTU21D;8365;51.030;4.696;2023-02-26T01:28:57;2.01;108.59
16505;HTU21D;8365;51.030;4.696;2023-02-26T01:34:32;2.21;108.20
16505;HTU21D;8365;51.030;4.696;2023-02-26T01:42:24;2.09;109.91
16505;HTU21D;8365;51.030;4.696;2023-02-26T01:45:24;2.02;110.29
16505;HTU21D;8365;51.030;4.696;2023-02-26T01:48:06;2.13;110.74
16505;HTU21D;8365;51.030;4.696;2023-02-26T01:50:40;2.13;109.81
16505;HTU21D;8365;51.030;4.696;2023-02-26T01:55:57;2.13;110.16
16505;HTU21D;8365;51.030;4.696;2023-02-26T01:58:32;2.24;109.28
16505;HTU21D;8365;51.030;4.696;2023-02-26T02:01:03;2.05;110.75
16505;HTU21D;8365;51.030;4.696;2023-02-26T02:06:57;2.22;109.15
16505;HTU21D;8365;51.030;4.696;2023-02-26T02:09:31;2.16;110.04
16505;HTU21D;8365;51.030;4.696;2023-02-26T02:20:45;2.26;109.97
16505;HTU21D;8365;51.030;4.696;2023-02-26T02:23:44;2.09;110.28
16505;HTU21D;8365;51.030;4.696;2023-02-26T02:30:17;2.23;110.78
16505;HTU21D;8365;51.030;4.696;2023-02-26T02:32:58;2.31;109.48
16505;HTU21D;8365;51.030;4.696;2023-02-26T02:38:15;2.40;109.61
16505;HTU21D;8365;51.030;4.696;2023-02-26T02:40:50;2.42;109.31
16505;HTU21D;8365;51.030;4.696;2023-02-26T02:43:26;2.38;109.62
16505;HTU21D;8365;51.030;4.696;2023-02-26T02:46:16;2.51;108.60
16505;HTU21D;8365;51.030;4.696;2023-02-26T02:51:31;2.40;108.77
16505;HTU21D;8365;51.030;4.696;2023-02-26T02:54:12;2.45;108.72
16505;HTU21D;8365;51.030;4.696;2023-02-26T02:56:51;2.22;109.41
16505;HTU21D;8365;51.030;4.696;2023-02-26T02:59:32;2.34;109.08
16505;HTU21D;8365;51.030;4.696;2023-02-26T03:02:16;2.32;108.75
16505;HTU21D;8365;51.030;4.696;2023-02-26T03:04:49;2.24;110.71
16505;HTU21D;8365;51.030;4.696;2023-02-26T03:07:19;2.26;109.65
16505;HTU21D;8365;51.030;4.696;2023-02-26T03:09:50;2.37;109.13
16505;HTU21D;8365;51.030;4.696;2023-02-26T03:12:20;2.39;108.40
16505;HTU21D;8365;51.030;4.696;2023-02-26T03:14:51;2.41;108.38
16505;HTU21D;8365;51.030;4.696;2023-02-26T03:17:52;2.44;108.17
16505;HTU21D;8365;51.030;4.696;2023-02-26T03:20:32;2.23;108.90
16505;HTU21D;8365;51.030;4.696;2023-02-26T03:23:20;2.26;108.11
16505;HTU21D;8365;51.030;4.696;2023-02-26T03:28:26;2.11;109.45
16505;HTU21D;8365;51.030;4.696;2023-02-26T03:31:06;2.27;108.83
16505;HTU21D;8365;51.030;4.696;2023-02-26T03:33:55;2.14;108.81
16505;HTU21D;8365;51.030;4.696;2023-02-26T03:39:03;2.26;107.72
16505;HTU21D;8365;51.030;4.696;2023-02-26T03:41:40;2.19;107.73
16505;HTU21D;8365;51.030;4.696;2023-02-26T03:44:23;2.13;108.10
16505;HTU21D;8365;51.030;4.696;2023-02-26T03:46:57;2.15;107.46
16505;HTU21D;8365;51.030;4.696;2023-02-26T03:49:33;2.15;108.04
16505;HTU21D;8365;51.030;4.696;2023-02-26T03:52:04;2.05;107.61
16505;HTU21D;8365;51.030;4.696;2023-02-26T03:54:42;2.10;107.93
16505;HTU21D;8365;51.030;4.696;2023-02-26T03:57:14;2.21;106.67
16505;HTU21D;8365;51.030;4.696;2023-02-26T03:59:45;2.23;106.51
16505;HTU21D;8365;51.030;4.696;2023-02-26T04:02:20;2.21;105.95
16505;HTU21D;8365;51.030;4.696;2023-02-26T04:04:55;2.20;106.40
16505;HTU21D;8365;51.030;4.696;2023-02-26T04:07:27;2.21;105.51
16505;HTU21D;8365;51.030;4.696;2023-02-26T04:09:58;2.08;106.17
16505;HTU21D;8365;51.030;4.696;2023-02-26T04:12:31;2.22;105.63
16505;HTU21D;8365;51.030;4.696;2023-02-26T04:15:04;2.15;105.11
16505;HTU21D;8365;51.030;4.696;2023-02-26T04:17:36;2.13;105.34
16505;HTU21D;8365;51.030;4.696;2023-02-26T04:20:07;2.10;105.10
16505;HTU21D;8365;51.030;4.696;2023-02-26T04:22:39;2.02;104.78
16505;HTU21D;8365;51.030;4.696;2023-02-26T04:25:09;2.06;105.53
16505;HTU21D;8365;51.030;4.696;2023-02-26T04:27:42;2.14;103.87
16505;HTU21D;8365;51.030;4.696;2023-02-26T04:30:15;2.19;102.99
16505;HTU21D;8365;51.030;4.696;2023-02-26T04:32:48;2.09;103.48
16505;HTU21D;8365;51.030;4.696;2023-02-26T04:35:18;2.09;102.96
16505;HTU21D;8365;51.030;4.696;2023-02-26T04:37:48;2.07;102.46
16505;HTU21D;8365;51.030;4.696;2023-02-26T04:40:19;2.09;102.55
16505;HTU21D;8365;51.030;4.696;2023-02-26T04:42:49;2.01;102.38
16505;HTU21D;8365;51.030;4.696;2023-02-26T04:45:20;1.94;102.25
16505;HTU21D;8365;51.030;4.696;2023-02-26T04:47:50;1.97;102.35
16505;HTU21D;8365;51.030;4.696;2023-02-26T04:50:21;1.77;101.89
16505;HTU21D;8365;51.030;4.696;2023-02-26T04:52:52;1.81;103.05
16505;HTU21D;8365;51.030;4.696;2023-02-26T04:55:22;1.86;102.90
16505;HTU21D;8365;51.030;4.696;2023-02-26T04:57:53;1.72;103.18
16505;HTU21D;8365;51.030;4.696;2023-02-26T05:00:23;1.80;102.53
16505;HTU21D;8365;51.030;4.696;2023-02-26T05:02:54;1.71;103.89
16505;HTU21D;8365;51.030;4.696;2023-02-26T05:05:25;1.57;104.53
16505;HTU21D;8365;51.030;4.696;2023-02-26T05:07:56;1.57;105.26
16505;HTU21D;8365;51.030;4.696;2023-02-26T05:10:26;1.52;105.51
16505;HTU21D;8365;51.030;4.696;2023-02-26T05:12:57;1.53;104.96
16505;HTU21D;8365;51.030;4.696;2023-02-26T05:15:27;1.36;106.03
16505;HTU21D;8365;51.030;4.696;2023-02-26T05:18:00;1.36;106.11
16505;HTU21D;8365;51.030;4.696;2023-02-26T05:20:31;1.23;106.00
16505;HTU21D;8365;51.030;4.696;2023-02-26T05:23:01;1.13;108.44
16505;HTU21D;8365;51.030;4.696;2023-02-26T05:25:34;1.20;107.26
16505;HTU21D;8365;51.030;4.696;2023-02-26T05:28:04;1.32;107.37
16505;HTU21D;8365;51.030;4.696;2023-02-26T05:30:35;1.28;106.59
16505;HTU21D;8365;51.030;4.696;2023-02-26T05:33:05;1.31;106.03
16505;HTU21D;8365;51.030;4.696;2023-02-26T05:35:36;1.07;107.60
16505;HTU21D;8365;51.030;4.696;2023-02-26T05:38:06;1.12;107.62
16505;HTU21D;8365;51.030;4.696;2023-02-26T05:40:37;1.09;107.45
16505;HTU21D;8365;51.030;4.696;2023-02-26T05:43:07;1.06;107.54
16505;HTU21D;8365;51.030;4.696;2023-02-26T05:45:38;1.23;106.21
16505;HTU21D;8365;51.030;4.696;2023-02-26T05:48:08;1.22;106.51
16505;HTU21D;8365;51.030;4.696;2023-02-26T05:50:42;1.06;106.85
16505;HTU21D;8365;51.030;4.696;2023-02-26T05:53:13;1.16;105.98
16505;HTU21D;8365;51.030;4.696;2023-02-26T05:55:45;1.06;107.56
16505;HTU21D;8365;51.030;4.696;2023-02-26T05:58:16;1.09;107.04
16505;HTU21D;8365;51.030;4.696;2023-02-26T06:00:46;1.06;106.75
16505;HTU21D;8365;51.030;4.696;2023-02-26T06:03:17;1.04;106.53
16505;HTU21D;8365;51.030;4.696;2023-02-26T06:05:47;0.99;106.52
16505;HTU21D;8365;51.030;4.696;2023-02-26T06:08:18;1.02;106.20
16505;HTU21D;8365;51.030;4.696;2023-02-26T06:10:49;0.99;106.17
16505;HTU21D;8365;51.030;4.696;2023-02-26T06:13:21;0.91;106.30
16505;HTU21D;8365;51.030;4.696;2023-02-26T06:15:51;1.02;106.15
16505;HTU21D;8365;51.030;4.696;2023-02-26T06:18:23;1.03;105.37
16505;HTU21D;8365;51.030;4.696;2023-02-26T06:20:53;0.99;104.95
16505;HTU21D;8365;51.030;4.696;2023-02-26T06:23:26;0.94;104.67
16505;HTU21D;8365;51.030;4.696;2023-02-26T06:25:56;0.98;105.33
16505;HTU21D;8365;51.030;4.696;2023-02-26T06:28:29;1.01;105.11
16505;HTU21D;8365;51.030;4.696;2023-02-26T06:30:59;0.93;104.81
16505;HTU21D;8365;51.030;4.696;2023-02-26T06:33:32;0.69;103.08
16505;HTU21D;8365;51.030;4.696;2023-02-26T06:36:03;0.80;103.91
16505;HTU21D;8365;51.030;4.696;2023-02-26T06:38:33;0.84;104.15
16505;HTU21D;8365;51.030;4.696;2023-02-26T06:41:04;0.86;104.63
16505;HTU21D;8365;51.030;4.696;2023-02-26T06:43:34;0.79;104.54
16505;HTU21D;8365;51.030;4.696;2023-02-26T06:46:05;0.88;104.24
16505;HTU21D;8365;51.030;4.696;2023-02-26T06:48:35;0.88;103.45
16505;HTU21D;8365;51.030;4.696;2023-02-26T06:51:06;0.80;104.72
16505;HTU21D;8365;51.030;4.696;2023-02-26T06:53:36;0.87;103.79
16505;HTU21D;8365;51.030;4.696;2023-02-26T06:56:09;0.90;103.60
16505;HTU21D;8365;51.030;4.696;2023-02-26T06:58:44;0.93;103.46
16505;HTU21D;8365;51.030;4.696;2023-02-26T07:01:15;0.86;103.15
16505;HTU21D;8365;51.030;4.696;2023-02-26T07:03:45;0.81;103.00
16505;HTU21D;8365;51.030;4.696;2023-02-26T07:06:16;0.92;102.88
16505;HTU21D;8365;51.030;4.696;2023-02-26T07:08:46;0.95;102.35
16505;HTU21D;8365;51.030;4.696;2023-02-26T07:11:17;0.98;101.95
16505;HTU21D;8365;51.030;4.696;2023-02-26T07:13:50;1.05;102.09
16505;HTU21D;8365;51.030;4.696;2023-02-26T07:16:24;0.87;103.06
16505;HTU21D;8365;51.030;4.696;2023-02-26T07:18:54;1.10;101.30
16505;HTU21D;8365;51.030;4.696;2023-02-26T07:21:25;1.10;101.09
16505;HTU21D;8365;51.030;4.696;2023-02-26T07:23:55;1.12;101.47
16505;HTU21D;8365;51.030;4.696;2023-02-26T07:26:28;1.24;100.79
16505;HTU21D;8365;51.030;4.696;2023-02-26T07:28:58;1.21;100.15
16505;HTU21D;8365;51.030;4.696;2023-02-26T07:31:29;1.34;100.30
16505;HTU21D;8365;51.030;4.696;2023-02-26T07:34:04;1.64;98.52
16505;HTU21D;8365;51.030;4.696;2023-02-26T07:36:35;2.02;95.34
16505;HTU21D;8365;51.030;4.696;2023-02-26T07:39:05;2.37;93.44
16505;HTU21D;8365;51.030;4.696;2023-02-26T07:41:38;2.89;91.77
16505;HTU21D;8365;51.030;4.696;2023-02-26T07:44:09;3.42;88.11
16505;HTU21D;8365;51.030;4.696;2023-02-26T07:46:41;3.83;85.15
16505;HTU21D;8365;51.030;4.696;2023-02-26T07:49:14;3.86;83.05
16505;HTU21D;8365;51.030;4.696;2023-02-26T07:51:45;3.95;83.01
16505;HTU21D;8365;51.030;4.696;2023-02-26T07:54:17;4.50;79.24
16505;HTU21D;8365;51.030;4.696;2023-02-26T07:56:47;4.48;77.17
16505;HTU21D;8365;51.030;4.696;2023-02-26T07:59:18;4.35;79.42
16505;HTU21D;8365;51.030;4.696;2023-02-26T08:01:50;4.18;78.20
16505;HTU21D;8365;51.030;4.696;2023-02-26T08:04:21;4.49;77.11
16505;HTU21D;8365;51.030;4.696;2023-02-26T08:06:52;4.69;74.58
16505;HTU21D;8365;51.030;4.696;2023-02-26T08:09:26;5.46;70.83
16505;HTU21D;8365;51.030;4.696;2023-02-26T08:11:57;5.16;70.77
16505;HTU21D;8365;51.030;4.696;2023-02-26T08:14:30;5.76;68.05
16505;HTU21D;8365;51.030;4.696;2023-02-26T08:17:00;5.72;68.16
16505;HTU21D;8365;51.030;4.696;2023-02-26T08:19:31;5.35;69.99
16505;HTU21D;8365;51.030;4.696;2023-02-26T08:22:02;5.82;69.20
16505;HTU21D;8365;51.030;4.696;2023-02-26T08:24:33;5.91;68.02
16505;HTU21D;8365;51.030;4.696;2023-02-26T08:27:03;6.30;66.24
16505;HTU21D;8365;51.030;4.696;2023-02-26T08:29:36;6.01;66.20
16505;HTU21D;8365;51.030;4.696;2023-02-26T08:32:07;5.52;68.52
16505;HTU21D;8365;51.030;4.696;2023-02-26T08:34:37;5.22;69.31
16505;HTU21D;8365;51.030;4.696;2023-02-26T08:37:08;5.39;69.38
16505;HTU21D;8365;51.030;4.696;2023-02-26T08:39:40;4.91;70.58
16505;HTU21D;8365;51.030;4.696;2023-02-26T08:42:11;5.00;70.53
16505;HTU21D;8365;51.030;4.696;2023-02-26T08:44:46;4.73;72.98
16505;HTU21D;8365;51.030;4.696;2023-02-26T08:47:16;4.87;72.07
16505;HTU21D;8365;51.030;4.696;2023-02-26T08:49:47;4.79;72.78
16505;HTU21D;8365;51.030;4.696;2023-02-26T08:52:18;4.71;72.20
16505;HTU21D;8365;51.030;4.696;2023-02-26T08:54:49;4.65;73.00
16505;HTU21D;8365;51.030;4.696;2023-02-26T08:57:20;4.68;73.25
16505;HTU21D;8365;51.030;4.696;2023-02-26T08:59:56;4.61;72.70
16505;HTU21D;8365;51.030;4.696;2023-02-26T09:02:26;4.18;74.59
16505;HTU21D;8365;51.030;4.696;2023-02-26T09:04:56;4.16;74.31
16505;HTU21D;8365;51.030;4.696;2023-02-26T09:07:27;3.91;74.70
16505;HTU21D;8365;51.030;4.696;2023-02-26T09:09:57;3.90;75.31
16505;HTU21D;8365;51.030;4.696;2023-02-26T09:12:28;3.75;75.73
16505;HTU21D;8365;51.030;4.696;2023-02-26T09:14:58;3.83;76.32
16505;HTU21D;8365;51.030;4.696;2023-02-26T09:17:29;3.82;76.60
16505;HTU21D;8365;51.030;4.696;2023-02-26T09:20:00;3.76;76.96
16505;HTU21D;8365;51.030;4.696;2023-02-26T09:22:31;3.72;74.71
16505;HTU21D;8365;51.030;4.696;2023-02-26T09:25:02;3.73;77.54
16505;HTU21D;8365;51.030;4.696;2023-02-26T09:27:33;3.89;75.61
16505;HTU21D;8365;51.030;4.696;2023-02-26T09:30:07;3.94;75.02
16505;HTU21D;8365;51.030;4.696;2023-02-26T09:32:38;3.85;74.28
16505;HTU21D;8365;51.030;4.696;2023-02-26T09:35:08;3.78;74.39
16505;HTU21D;8365;51.030;4.696;2023-02-26T09:37:39;3.70;73.82
16505;HTU21D;8365;51.030;4.696;2023-02-26T09:40:22;3.54;75.63
16505;HTU21D;8365;51.030;4.696;2023-02-26T09:45:37;3.65;76.65
16505;HTU21D;8365;51.030;4.696;2023-02-26T09:48:11;3.93;76.48
16505;HTU21D;8365;51.030;4.696;2023-02-26T09:50:50;4.04;75.15
16505;HTU21D;8365;51.030;4.696;2023-02-26T09:53:50;4.12;73.45
16505;HTU21D;8365;51.030;4.696;2023-02-26T09:56:24;4.27;73.67
16505;HTU21D;8365;51.030;4.696;2023-02-26T09:58:56;4.35;70.68
16505;HTU21D;8365;51.030;4.696;2023-02-26T10:01:33;4.46;70.16
16505;HTU21D;8365;51.030;4.696;2023-02-26T10:07:15;4.36;67.94
16505;HTU21D;8365;51.030;4.696;2023-02-26T10:10:06;4.37;67.76
16505;HTU21D;8365;51.030;4.696;2023-02-26T10:12:41;4.47;67.10
16505;HTU21D;8365;51.030;4.696;2023-02-26T10:18:15;4.90;67.02
16505;HTU21D;8365;51.030;4.696;2023-02-26T10:23:45;4.84;61.91
16505;HTU21D;8365;51.030;4.696;2023-02-26T10:26:21;4.89;63.00
16505;HTU21D;8365;51.030;4.696;2023-02-26T10:31:58;5.08;61.47
16505;HTU21D;8365;51.030;4.696;2023-02-26T10:34:43;5.31;60.81
16505;HTU21D;8365;51.030;4.696;2023-02-26T10:42:54;6.99;55.86
16505;HTU21D;8365;51.030;4.696;2023-02-26T10:51:23;9.03;48.81
16505;HTU21D;8365;51.030;4.696;2023-02-26T10:53:59;9.37;49.44
16505;HTU21D;8365;51.030;4.696;2023-02-26T10:56:33;10.16;47.44
16505;HTU21D;8365;51.030;4.696;2023-02-26T10:59:04;10.10;45.59
16505;HTU21D;8365;51.030;4.696;2023-02-26T11:01:35;10.64;44.00
16505;HTU21D;8365;51.030;4.696;2023-02-26T11:04:12;10.23;43.99
16505;HTU21D;8365;51.030;4.696;2023-02-26T11:06:52;10.41;46.70
16505;HTU21D;8365;51.030;4.696;2023-02-26T11:09:36;10.46;45.46
16505;HTU21D;8365;51.030;4.696;2023-02-26T11:14:47;11.77;42.08
16505;HTU21D;8365;51.030;4.696;2023-02-26T11:17:19;11.85;40.71
16505;HTU21D;8365;51.030;4.696;2023-02-26T11:22:46;12.52;40.13
16505;HTU21D;8365;51.030;4.696;2023-02-26T11:25:22;12.57;40.25
16505;HTU21D;8365;51.030;4.696;2023-02-26T11:28:02;11.71;38.08
16505;HTU21D;8365;51.030;4.696;2023-02-26T11:30:37;12.07;41.07
16505;HTU21D;8365;51.030;4.696;2023-02-26T11:33:16;12.49;39.01
16505;HTU21D;8365;51.030;4.696;2023-02-26T11:35:47;12.69;39.16
16505;HTU21D;8365;51.030;4.696;2023-02-26T11:38:22;12.69;38.36
16505;HTU21D;8365;51.030;4.696;2023-02-26T11:40:56;12.47;38.91
16505;HTU21D;8365;51.030;4.696;2023-02-26T11:43:44;12.42;38.37
16505;HTU21D;8365;51.030;4.696;2023-02-26T11:46:23;11.22;40.59
16505;HTU21D;8365;51.030;4.696;2023-02-26T11:48:55;11.79;38.00
16505;HTU21D;8365;51.030;4.696;2023-02-26T11:51:28;11.49;40.20
16505;HTU21D;8365;51.030;4.696;2023-02-26T11:54:00;11.82;42.82
16505;HTU21D;8365;51.030;4.696;2023-02-26T11:56:36;11.68;39.46
16505;HTU21D;8365;51.030;4.696;2023-02-26T11:59:24;11.39;40.20
16505;HTU21D;8365;51.030;4.696;2023-02-26T12:01:54;10.03;43.40
16505;HTU21D;8365;51.030;4.696;2023-02-26T12:04:27;9.51;44.55
16505;HTU21D;8365;51.030;4.696;2023-02-26T12:06:57;10.13;42.03
16505;HTU21D;8365;51.030;4.696;2023-02-26T12:09:28;10.24;42.25
16505;HTU21D;8365;51.030;4.696;2023-02-26T12:26:33;11.60;36.18
16505;HTU21D;8365;51.030;4.696;2023-02-26T12:40:15;11.07;38.11
16505;HTU21D;8365;51.030;4.696;2023-02-26T12:43:08;10.83;41.06
16505;HTU21D;8365;51.030;4.696;2023-02-26T13:05:46;10.84;39.65
16505;HTU21D;8365;51.030;4.696;2023-02-26T13:08:55;11.10;38.40
16505;HTU21D;8365;51.030;4.696;2023-02-26T13:15:37;14.13;33.62
16505;HTU21D;8365;51.030;4.696;2023-02-26T13:20:34;14.04;32.63
16505;HTU21D;8365;51.030;4.696;2023-02-26T13:23:16;14.04;30.70
16505;HTU21D;8365;51.030;4.696;2023-02-26T13:25:55;13.63;34.27
16505;HTU21D;8365;51.030;4.696;2023-02-26T13:28:51;14.43;30.90
16505;HTU21D;8365;51.030;4.696;2023-02-26T13:31:43;15.65;31.74
16505;HTU21D;8365;51.030;4.696;2023-02-26T13:34:21;15.69;29.25
16505;HTU21D;8365;51.030;4.696;2023-02-26T13:36:54;15.65;27.76
16505;HTU21D;8365;51.030;4.696;2023-02-26T13:42:32;15.96;28.59
16505;HTU21D;8365;51.030;4.696;2023-02-26T13:45:30;16.27;27.86
16505;HTU21D;8365;51.030;4.696;2023-02-26T13:48:38;16.75;27.93
16505;HTU21D;8365;51.030;4.696;2023-02-26T13:51:16;16.61;26.93
16505;HTU21D;8365;51.030;4.696;2023-02-26T13:53:58;15.52;27.44
16505;HTU21D;8365;51.030;4.696;2023-02-26T14:09:35;17.37;28.81
16505;HTU21D;8365;51.030;4.696;2023-02-26T14:14:47;17.34;24.65
16505;HTU21D;8365;51.030;4.696;2023-02-26T14:20:28;17.89;24.71
16505;HTU21D;8365;51.030;4.696;2023-02-26T14:25:50;17.24;26.42
16505;HTU21D;8365;51.030;4.696;2023-02-26T14:36:32;17.94;24.67
16505;HTU21D;8365;51.030;4.696;2023-02-26T14:39:06;16.27;25.65
16505;HTU21D;8365;51.030;4.696;2023-02-26T14:41:41;16.13;27.12
16505;HTU21D;8365;51.030;4.696;2023-02-26T14:44:21;16.39;30.33
16505;HTU21D;8365;51.030;4.696;2023-02-26T14:46:55;16.54;29.23
16505;HTU21D;8365;51.030;4.696;2023-02-26T14:49:31;16.13;28.83
16505;HTU21D;8365;51.030;4.696;2023-02-26T14:52:39;17.21;27.92
16505;HTU21D;8365;51.030;4.696;2023-02-26T14:55:22;17.24;26.67
16505;HTU21D;8365;51.030;4.696;2023-02-26T15:06:22;15.48;29.99
16505;HTU21D;8365;51.030;4.696;2023-02-26T15:19:30;15.58;29.06
16505;HTU21D;8365;51.030;4.696;2023-02-26T15:22:23;15.92;28.95
16505;HTU21D;8365;51.030;4.696;2023-02-26T15:24:56;16.25;28.69
16505;HTU21D;8365;51.030;4.696;2023-02-26T15:27:29;17.19;28.13
16505;HTU21D;8365;51.030;4.696;2023-02-26T15:30:01;16.87;26.20
16505;HTU21D;8365;51.030;4.696;2023-02-26T15:32:36;16.70;27.81
16505;HTU21D;8365;51.030;4.696;2023-02-26T15:35:19;15.89;28.57
16505;HTU21D;8365;51.030;4.696;2023-02-26T15:37:53;15.71;28.73
16505;HTU21D;8365;51.030;4.696;2023-02-26T15:40:24;15.31;29.21
16505;HTU21D;8365;51.030;4.696;2023-02-26T15:42:57;15.23;29.68
16505;HTU21D;8365;51.030;4.696;2023-02-26T15:45:37;15.32;30.08
16505;HTU21D;8365;51.030;4.696;2023-02-26T15:48:23;16.18;29.55
16505;HTU21D;8365;51.030;4.696;2023-02-26T15:51:01;15.25;29.81
16505;HTU21D;8365;51.030;4.696;2023-02-26T15:53:42;15.53;29.83
16505;HTU21D;8365;51.030;4.696;2023-02-26T15:56:20;15.59;29.43
16505;HTU21D;8365;51.030;4.696;2023-02-26T15:59:05;15.92;28.68
16505;HTU21D;8365;51.030;4.696;2023-02-26T16:01:39;15.41;29.45
16505;HTU21D;8365;51.030;4.696;2023-02-26T16:04:16;15.43;31.09
16505;HTU21D;8365;51.030;4.696;2023-02-26T16:06:51;15.97;29.37
16505;HTU21D;8365;51.030;4.696;2023-02-26T16:09:29;14.99;29.37
16505;HTU21D;8365;51.030;4.696;2023-02-26T16:15:33;15.31;30.45
16505;HTU21D;8365;51.030;4.696;2023-02-26T16:18:07;14.63;30.80
16505;HTU21D;8365;51.030;4.696;2023-02-26T16:20:41;14.14;31.07
16505;HTU21D;8365;51.030;4.696;2023-02-26T16:23:17;13.54;34.37
16505;HTU21D;8365;51.030;4.696;2023-02-26T16:25:55;13.26;32.83
16505;HTU21D;8365;51.030;4.696;2023-02-26T16:28:30;13.21;33.26
16505;HTU21D;8365;51.030;4.696;2023-02-26T16:31:03;13.24;35.03
16505;HTU21D;8365;51.030;4.696;2023-02-26T16:33:36;12.96;34.31
16505;HTU21D;8365;51.030;4.696;2023-02-26T16:36:14;13.43;33.72
16505;HTU21D;8365;51.030;4.696;2023-02-26T16:38:49;12.89;34.57
16505;HTU21D;8365;51.030;4.696;2023-02-26T16:41:23;12.71;35.30
16505;HTU21D;8365;51.030;4.696;2023-02-26T16:43:57;12.95;35.66
16505;HTU21D;8365;51.030;4.696;2023-02-26T16:46:44;12.72;36.63
16505;HTU21D;8365;51.030;4.696;2023-02-26T16:49:22;12.94;35.33
16505;HTU21D;8365;51.030;4.696;2023-02-26T16:51:55;12.65;35.82
16505;HTU21D;8365;51.030;4.696;2023-02-26T16:54:35;12.79;35.60
16505;HTU21D;8365;51.030;4.696;2023-02-26T16:57:18;12.29;36.53
16505;HTU21D;8365;51.030;4.696;2023-02-26T16:59:55;12.05;37.46
16505;HTU21D;8365;51.030;4.696;2023-02-26T17:02:29;11.84;38.04
16505;HTU21D;8365;51.030;4.696;2023-02-26T17:07:52;10.66;41.16
16505;HTU21D;8365;51.030;4.696;2023-02-26T17:10:32;10.35;40.88
16505;HTU21D;8365;51.030;4.696;2023-02-26T17:13:14;9.76;42.43
16505;HTU21D;8365;51.030;4.696;2023-02-26T17:15:46;9.65;42.87
16505;HTU21D;8365;51.030;4.696;2023-02-26T17:18:20;9.37;43.26
16505;HTU21D;8365;51.030;4.696;2023-02-26T17:20:50;9.24;43.84
16505;HTU21D;8365;51.030;4.696;2023-02-26T17:23:22;9.07;44.03
16505;HTU21D;8365;51.030;4.696;2023-02-26T17:25:55;8.89;44.62
16505;HTU21D;8365;51.030;4.696;2023-02-26T17:28:32;8.61;45.67
16505;HTU21D;8365;51.030;4.696;2023-02-26T17:31:06;8.58;45.60
16505;HTU21D;8365;51.030;4.696;2023-02-26T17:33:42;8.27;46.73
16505;HTU21D;8365;51.030;4.696;2023-02-26T17:36:15;8.12;46.90
16505;HTU21D;8365;51.030;4.696;2023-02-26T17:38:47;8.08;47.21
16505;HTU21D;8365;51.030;4.696;2023-02-26T17:41:21;8.01;47.54
16505;HTU21D;8365;51.030;4.696;2023-02-26T17:43:52;7.85;47.70
16505;HTU21D;8365;51.030;4.696;2023-02-26T17:46:23;7.84;47.47
16505;HTU21D;8365;51.030;4.696;2023-02-26T17:48:53;7.82;47.92
16505;HTU21D;8365;51.030;4.696;2023-02-26T17:51:24;7.79;48.09
16505;HTU21D;8365;51.030;4.696;2023-02-26T17:53:56;7.72;48.32
16505;HTU21D;8365;51.030;4.696;2023-02-26T17:56:29;7.33;48.86
16505;HTU21D;8365;51.030;4.696;2023-02-26T17:59:00;7.42;48.50
16505;HTU21D;8365;51.030;4.696;2023-02-26T18:01:31;7.45;48.38
16505;HTU21D;8365;51.030;4.696;2023-02-26T18:04:01;7.40;48.71
16505;HTU21D;8365;51.030;4.696;2023-02-26T18:06:35;7.38;49.05
16505;HTU21D;8365;51.030;4.696;2023-02-26T18:09:06;7.31;49.49
16505;HTU21D;8365;51.030;4.696;2023-02-26T18:11:37;7.25;49.92
16505;HTU21D;8365;51.030;4.696;2023-02-26T18:14:08;7.26;49.90
16505;HTU21D;8365;51.030;4.696;2023-02-26T18:16:41;7.04;50.06
16505;HTU21D;8365;51.030;4.696;2023-02-26T18:19:14;7.04;49.53
16505;HTU21D;8365;51.030;4.696;2023-02-26T18:21:44;6.96;50.05
16505;HTU21D;8365;51.030;4.696;2023-02-26T18:24:15;6.84;50.18
16505;HTU21D;8365;51.030;4.696;2023-02-26T18:26:45;6.71;51.07
16505;HTU21D;8365;51.030;4.696;2023-02-26T18:29:16;6.72;50.92
16505;HTU21D;8365;51.030;4.696;2023-02-26T18:31:46;6.72;50.51
16505;HTU21D;8365;51.030;4.696;2023-02-26T18:34:17;6.69;50.82
16505;HTU21D;8365;51.030;4.696;2023-02-26T18:36:47;6.61;51.19
16505;HTU21D;8365;51.030;4.696;2023-02-26T18:39:18;6.67;51.37
16505;HTU21D;8365;51.030;4.696;2023-02-26T18:41:49;6.64;51.21
16505;HTU21D;8365;51.030;4.696;2023-02-26T18:44:20;6.61;51.56
16505;HTU21D;8365;51.030;4.696;2023-02-26T18:46:50;6.55;51.64
16505;HTU21D;8365;51.030;4.696;2023-02-26T18:49:20;6.53;51.69
16505;HTU21D;8365;51.030;4.696;2023-02-26T18:51:51;6.43;52.25
16505;HTU21D;8365;51.030;4.696;2023-02-26T18:54:23;6.42;52.56
16505;HTU21D;8365;51.030;4.696;2023-02-26T18:56:54;6.44;52.68
16505;HTU21D;8365;51.030;4.696;2023-02-26T18:59:24;6.39;52.63
16505;HTU21D;8365;51.030;4.696;2023-02-26T19:01:55;6.28;53.81
16505;HTU21D;8365;51.030;4.696;2023-02-26T19:04:26;6.24;53.41
16505;HTU21D;8365;51.030;4.696;2023-02-26T19:06:56;6.10;54.49
16505;HTU21D;8365;51.030;4.696;2023-02-26T19:09:27;5.91;55.53
16505;HTU21D;8365;51.030;4.696;2023-02-26T19:11:57;5.84;55.06
16505;HTU21D;8365;51.030;4.696;2023-02-26T19:14:28;5.81;56.00
16505;HTU21D;8365;51.030;4.696;2023-02-26T19:16:59;5.71;55.84
16505;HTU21D;8365;51.030;4.696;2023-02-26T19:19:29;5.71;56.45
16505;HTU21D;8365;51.030;4.696;2023-02-26T19:22:00;5.64;56.98